Christchurch, New Zealand

6:06 PM NZST on August 28, 2016 (GMT +1200)
Christchurch International | | Change Station

Elev 125 ft 43.48 °S, 172.55 °E | Updated 36 minutes ago

Clear
Clear
52 °F
Feels Like 52 °F
N
5
Wind Variable Wind from North

Today
High -- | Low -- °F
--% Chance of Precip.
Yesterday
High -- | Low -- °F
Precip. -- in
Pressure 29.80 in
Visibility 6.2 miles
Clouds
Dew Point 45 °F
Humidity 76%
Rainfall 0.00 in
Snow Depth Not available.
7:03 AM 5:59 PM
Waning Crescent, 18% visible
METAR NZCH 280530Z AUTO 36004KT 320V040 9999 NCD 11/07 Q1009 NOSIG
Pressure 29.80 in
Visibility 6.2 miles
Clouds
Dew Point 45 °F
Humidity 76%
Rainfall 0.00 in
Snow Depth Not available.
7:03 AM 5:59 PM
Waning Crescent, 18% visible
METAR NZCH 280530Z AUTO 36004KT 320V040 9999 NCD 11/07 Q1009 NOSIG

10-Day Weather Forecast

No radar image for this location.
×

Almanac

Astronomy

Aug. 28, 2016 Rise Set
Actual Time
Civil Twilight
Nautical Twilight
Astronomical Twilight
Moon
Length of Visible Light
Length of Day
Tomorrow will be .
, % of the Moon is Illuminated

Today's Extremes

Country Highs Country Lows

Community

WunderPhotos

Upload Photos

1,935,533 photos uploaded!

WunderBlog® & News

Nearby

Air Quality

  Air Quality AQ Index Pollutant
Not available.

Snow Depth

Station Depth Elevation

Earthquake Activity

City Distance Mag. Time & Date
Minimum magnitude displayed is 2.5.

Coastal Water Temperatures

Place Temperature

Stations

Nearby Weather Stations

Station Location Temp. Windchill Dew Point Humidity Wind Precip. Elev Updated Type